Time;durP1;ratioP1;P1;durP2;ratioP2;P2;SDS_P1;SDS_P2;PMS_P1;PMS_P2;Temp;Humidity;BMP_temperature;BMP_pressure;BME280_temperature;BME280_humidity;BME280_pressure;Samples;Min_cycle;Max_cycle;Signal;HPM_P1;HPM_P2
2021/01/05 00:00:15;;;;;;;1.77;1.63;;;16.40;46.60;;;;;;6104931;23;20144;-81
2021/01/05 00:02:41;;;;;;;2.10;1.65;;;16.50;46.70;;;;;;6103175;23;20165;-81
2021/01/05 00:05:10;;;;;;;2.10;1.80;;;16.40;46.70;;;;;;6104093;23;20191;-81
2021/01/05 00:07:36;;;;;;;1.95;1.80;;;16.40;46.70;;;;;;6105680;23;20175;-82
2021/01/05 00:10:05;;;;;;;2.30;2.10;;;16.50;46.70;;;;;;6104628;23;20181;-81
2021/01/05 00:12:31;;;;;;;2.10;1.65;;;16.50;46.70;;;;;;6104293;23;20148;-82
2021/01/05 00:14:58;;;;;;;2.28;2.08;;;16.50;46.70;;;;;;6104224;23;20136;-81
2021/01/05 00:17:24;;;;;;;2.00;1.80;;;16.50;46.70;;;;;;6079472;23;20604;-81
2021/01/05 00:19:51;;;;;;;1.95;1.70;;;16.40;46.70;;;;;;6105323;23;20193;-81
2021/01/05 00:22:26;;;;;;;2.20;1.90;;;16.40;46.80;;;;;;6105629;23;20137;-81
2021/01/05 00:24:52;;;;;;;2.55;2.03;;;16.40;46.90;;;;;;6104692;23;20171;-81
2021/01/05 00:27:19;;;;;;;2.10;1.90;;;16.40;47.00;;;;;;6105059;23;20572;-81
2021/01/05 00:29:45;;;;;;;2.20;2.00;;;16.40;46.90;;;;;;6105103;23;20137;-82
2021/01/05 00:32:15;;;;;;;2.05;1.83;;;16.40;46.90;;;;;;6103784;23;20136;-81
2021/01/05 00:34:41;;;;;;;2.20;1.80;;;16.40;46.90;;;;;;6108413;23;20207;-81
2021/01/05 00:37:08;;;;;;;2.22;2.03;;;16.40;47.00;;;;;;6085105;23;20155;-80
2021/01/05 00:39:34;;;;;;;1.80;1.70;;;16.40;46.80;;;;;;6108556;23;20171;-81
2021/01/05 00:42:01;;;;;;;1.80;1.70;;;16.40;47.00;;;;;;6134800;23;20140;-80
2021/01/05 00:44:30;;;;;;;1.95;1.80;;;16.40;47.00;;;;;;6135108;23;20215;-81
2021/01/05 00:46:57;;;;;;;1.75;1.65;;;16.30;47.10;;;;;;6135323;23;20160;-81
2021/01/05 00:49:23;;;;;;;2.42;2.05;;;16.40;47.10;;;;;;6108343;23;20132;-81
2021/01/05 00:51:54;;;;;;;2.72;1.90;;;16.40;47.10;;;;;;6109030;23;20136;-82
2021/01/05 00:54:20;;;;;;;2.30;1.83;;;16.40;47.10;;;;;;6134620;23;20148;-82
2021/01/05 00:57:01;;;;;;;2.20;2.00;;;16.40;47.10;;;;;;6108933;23;20137;-81
2021/01/05 00:59:27;;;;;;;1.92;1.77;;;16.40;47.10;;;;;;6109130;23;20145;-81
2021/01/05 01:01:54;;;;;;;2.15;1.92;;;16.40;47.10;;;;;;6134764;23;20164;-81
2021/01/05 01:04:20;;;;;;;1.73;1.63;;;16.30;47.20;;;;;;6108366;23;20176;-81
2021/01/05 01:06:46;;;;;;;2.10;1.90;;;16.30;47.20;;;;;;6084702;23;20186;-81
2021/01/05 01:09:12;;;;;;;2.30;2.05;;;16.30;47.20;;;;;;6060897;23;20148;-82
2021/01/05 01:11:38;;;;;;;2.08;1.88;;;16.30;47.10;;;;;;6084144;23;20240;-81
2021/01/05 01:14:04;;;;;;;2.20;2.00;;;16.40;47.20;;;;;;6085270;23;20144;-82
2021/01/05 01:16:32;;;;;;;2.53;2.00;;;16.30;47.20;;;;;;6133904;23;20215;-81
2021/01/05 01:19:06;;;;;;;2.03;1.65;;;16.30;47.20;;;;;;6134017;23;20169;-81
2021/01/05 01:21:33;;;;;;;2.25;2.05;;;16.40;47.10;;;;;;6133677;23;20259;-82
2021/01/05 01:24:00;;;;;;;2.20;2.00;;;16.40;47.10;;;;;;6108226;23;20187;-81
2021/01/05 01:26:34;;;;;;;2.10;1.90;;;16.30;47.20;;;;;;6133774;23;20160;-82
2021/01/05 01:29:00;;;;;;;2.20;1.90;;;16.30;47.30;;;;;;6133296;23;20139;-82
2021/01/05 01:31:28;;;;;;;2.00;1.80;;;16.30;47.20;;;;;;6108290;23;20140;-81
2021/01/05 01:33:54;;;;;;;2.13;1.92;;;16.30;47.30;;;;;;6107485;23;20199;-81
2021/01/05 01:36:20;;;;;;;2.35;1.95;;;16.40;47.30;;;;;;6133881;23;20137;-81
2021/01/05 01:38:47;;;;;;;2.30;2.10;;;16.30;47.20;;;;;;6133393;23;20136;-81
2021/01/05 01:41:13;;;;;;;2.10;1.80;;;16.40;47.20;;;;;;6133377;23;20168;-80
2021/01/05 01:43:38;;;;;;;2.75;2.13;;;16.30;47.30;;;;;;6107772;23;20136;-81
2021/01/05 01:46:04;;;;;;;2.25;1.90;;;16.40;47.30;;;;;;6107965;23;20147;-81
2021/01/05 01:48:30;;;;;;;2.05;1.80;;;16.30;47.30;;;;;;6134041;23;20168;-82
2021/01/05 01:50:59;;;;;;;2.25;2.05;;;16.30;47.50;;;;;;6107575;23;20144;-81
2021/01/05 01:53:38;;;;;;;1.90;1.80;;;16.30;47.50;;;;;;6084255;23;20162;-82
2021/01/05 01:56:23;;;;;;;1.98;1.80;;;16.30;47.50;;;;;;6085433;23;20136;-81
2021/01/05 01:58:54;;;;;;;2.40;1.80;;;16.30;47.40;;;;;;6133811;23;20132;-82
2021/01/05 02:01:49;;;;;;;2.00;1.80;;;16.30;47.30;;;;;;6133266;23;20133;-81
2021/01/05 02:04:33;;;;;;;1.80;1.70;;;16.30;47.40;;;;;;6107808;23;20139;-81
2021/01/05 02:07:11;;;;;;;2.50;2.17;;;16.30;47.40;;;;;;6133742;23;20245;-81
2021/01/05 02:09:58;;;;;;;2.05;1.85;;;16.30;47.40;;;;;;6133598;23;20132;-81
2021/01/05 02:12:30;;;;;;;2.25;1.95;;;16.30;47.50;;;;;;6107690;23;20156;-81
2021/01/05 02:15:33;;;;;;;2.05;1.80;;;16.30;47.60;;;;;;6133903;23;20133;-81
2021/01/05 02:18:20;;;;;;;2.03;1.83;;;16.30;47.60;;;;;;6015941;23;20164;-81
2021/01/05 02:21:11;;;;;;;2.28;2.08;;;16.20;47.70;;;;;;5992559;23;20149;-82
2021/01/05 02:23:53;;;;;;;2.33;2.00;;;16.20;47.50;;;;;;5991284;23;20185;-80
2021/01/05 02:26:35;;;;;;;1.98;1.77;;;16.30;47.60;;;;;;6012857;23;20226;-81
2021/01/05 02:29:04;;;;;;;1.90;1.70;;;16.30;47.50;;;;;;5991811;23;20495;-82
2021/01/05 02:32:22;;;;;;;2.30;2.00;;;16.30;47.50;;;;;;5989783;23;20226;-81
2021/01/05 02:35:25;;;;;;;2.20;1.92;;;16.30;47.50;;;;;;5927976;24;20212;-81
2021/01/05 02:38:23;;;;;;;2.10;1.90;;;16.30;47.60;;;;;;5928911;24;20165;-82
2021/01/05 02:41:21;;;;;;;2.03;1.83;;;16.30;47.60;;;;;;5929515;24;20145;-82
2021/01/05 02:44:12;;;;;;;2.28;2.05;;;16.30;47.60;;;;;;5906423;24;20160;-81
2021/01/05 02:46:54;;;;;;;2.00;1.70;;;16.30;47.60;;;;;;5928798;24;20145;-80
2021/01/05 02:49:36;;;;;;;2.10;1.90;;;16.30;47.50;;;;;;5928775;24;20163;-81
2021/01/05 02:52:16;;;;;;;2.10;1.90;;;16.20;47.70;;;;;;5929137;24;20145;-81
2021/01/05 02:55:08;;;;;;;2.03;1.83;;;16.30;47.90;;;;;;5960488;23;20158;-81
2021/01/05 02:58:02;;;;;;;2.33;2.05;;;16.20;47.90;;;;;;6012330;23;20615;-81
2021/01/05 03:00:46;;;;;;;1.80;1.70;;;16.30;47.70;;;;;;6013200;23;20143;-81
2021/01/05 03:03:11;;;;;;;2.65;1.95;;;16.30;47.80;;;;;;6012819;23;20236;-81
2021/01/05 03:05:45;;;;;;;2.40;2.20;;;16.30;47.70;;;;;;6012960;23;20146;-81
2021/01/05 03:08:12;;;;;;;2.17;1.90;;;16.30;47.70;;;;;;5966660;23;20253;-81
2021/01/05 03:10:52;;;;;;;2.10;1.90;;;16.30;47.60;;;;;;6050623;23;20462;-81
2021/01/05 03:13:30;;;;;;;2.00;1.80;;;16.30;47.70;;;;;;6103500;23;20606;-81
2021/01/05 03:15:59;;;;;;;2.33;2.00;;;16.30;47.80;;;;;;6104316;23;20148;-81
2021/01/05 03:18:51;;;;;;;2.78;1.88;;;16.20;47.80;;;;;;6104101;23;20201;-81
2021/01/05 03:21:25;;;;;;;2.20;2.00;;;16.20;47.90;;;;;;6012352;23;20159;-81
2021/01/05 03:23:52;;;;;;;3.05;2.00;;;16.20;47.80;;;;;;5989295;23;20182;-81
2021/01/05 03:26:20;;;;;;;2.13;1.92;;;16.20;47.80;;;;;;5988873;23;20159;-81
2021/01/05 03:28:45;;;;;;;2.35;2.10;;;16.30;47.80;;;;;;5989278;23;20194;-81
2021/01/05 03:31:47;;;;;;;2.00;1.73;;;16.20;47.80;;;;;;5988952;23;20147;-81
2021/01/05 03:34:12;;;;;;;2.20;1.77;;;16.20;47.90;;;;;;6012409;23;20666;-81
2021/01/05 03:36:38;;;;;;;1.90;1.60;;;16.20;47.90;;;;;;6012646;23;20146;-81
2021/01/05 03:39:04;;;;;;;2.03;1.85;;;16.20;47.90;;;;;;6012562;23;20158;-81
2021/01/05 03:41:32;;;;;;;2.20;1.90;;;16.20;47.80;;;;;;6012291;23;20139;-81
2021/01/05 03:43:58;;;;;;;2.00;1.80;;;16.20;47.80;;;;;;5965660;23;20143;-80
2021/01/05 03:46:25;;;;;;;2.05;1.85;;;16.30;47.80;;;;;;5989529;23;20246;-81
2021/01/05 03:48:51;;;;;;;2.10;1.90;;;16.20;47.90;;;;;;5988732;23;20150;-80
2021/01/05 03:51:16;;;;;;;2.22;1.95;;;16.20;47.90;;;;;;5988803;23;20495;-81
2021/01/05 03:53:43;;;;;;;2.38;2.00;;;16.30;47.80;;;;;;6012752;23;20677;-81
2021/01/05 03:56:09;;;;;;;2.42;1.75;;;16.30;47.80;;;;;;6012559;23;20139;-81
2021/01/05 03:58:35;;;;;;;2.20;2.00;;;16.20;47.80;;;;;;6062741;23;20179;-82
2021/01/05 04:01:02;;;;;;;2.10;1.90;;;16.20;47.90;;;;;;6103883;23;20183;-81
2021/01/05 04:03:28;;;;;;;2.97;2.10;;;16.20;47.90;;;;;;6080697;23;20140;-81
2021/01/05 04:05:54;;;;;;;2.03;1.80;;;16.30;47.90;;;;;;6103900;23;20140;-82
2021/01/05 04:08:21;;;;;;;1.92;1.83;;;16.20;47.90;;;;;;6130046;23;20164;-81
2021/01/05 04:10:47;;;;;;;2.08;1.80;;;16.20;47.90;;;;;;6104055;23;20143;-81
2021/01/05 04:13:13;;;;;;;2.58;1.80;;;16.30;47.80;;;;;;6104541;23;20164;-81
2021/01/05 04:15:39;;;;;;;1.77;1.63;;;16.20;47.80;;;;;;6130167;23;20555;-81
2021/01/05 04:18:05;;;;;;;2.10;1.90;;;16.20;47.80;;;;;;6129816;23;20573;-81
2021/01/05 04:20:31;;;;;;;2.47;2.00;;;16.20;48.00;;;;;;6130034;23;20136;-81
2021/01/05 04:22:57;;;;;;;2.10;1.90;;;16.20;47.90;;;;;;6104429;23;20137;-81
2021/01/05 04:25:24;;;;;;;2.05;1.85;;;16.20;47.90;;;;;;6104887;23;20140;-81
2021/01/05 04:27:50;;;;;;;2.10;1.90;;;16.20;48.00;;;;;;6081987;23;20175;-81
2021/01/05 04:30:16;;;;;;;1.92;1.75;;;16.20;48.00;;;;;;6081293;23;20496;-80
2021/01/05 04:32:43;;;;;;;2.20;1.95;;;16.20;48.10;;;;;;6105689;23;20155;-81
2021/01/05 04:35:10;;;;;;;2.45;2.22;;;16.20;47.90;;;;;;6131010;23;20211;-81
2021/01/05 04:37:36;;;;;;;1.90;1.70;;;16.20;48.00;;;;;;6131568;23;20569;-81
2021/01/05 04:40:04;;;;;;;2.00;1.80;;;16.20;48.10;;;;;;6105744;23;20588;-82
2021/01/05 04:42:33;;;;;;;2.28;1.80;;;16.20;48.00;;;;;;6106069;23;20144;-83
2021/01/05 04:45:03;;;;;;;3.22;1.90;;;16.20;48.20;;;;;;6082429;23;20206;-81
2021/01/05 04:47:53;;;;;;;2.10;1.83;;;16.20;48.20;;;;;;6081732;23;20184;-81
2021/01/05 04:50:24;;;;;;;2.10;1.90;;;16.20;48.10;;;;;;6134061;23;20136;-80
2021/01/05 04:52:55;;;;;;;2.05;1.80;;;16.20;48.10;;;;;;6086263;23;20133;-81
2021/01/05 04:55:48;;;;;;;3.78;2.22;;;16.20;48.00;;;;;;6109536;23;20128;-80
2021/01/05 04:58:27;;;;;;;1.88;1.73;;;16.20;47.90;;;;;;6064020;23;20488;-81
2021/01/05 05:00:54;;;;;;;2.22;1.90;;;16.30;47.80;;;;;;6110974;23;20568;-81
2021/01/05 05:03:46;;;;;;;1.92;1.73;;;16.20;47.70;;;;;;6085241;23;20136;-81
2021/01/05 05:06:17;;;;;;;2.30;2.10;;;16.30;47.40;;;;;;6109602;23;20144;-81
2021/01/05 05:09:06;;;;;;;2.42;1.95;;;16.40;47.50;;;;;;6135509;23;20619;-81
2021/01/05 05:11:50;;;;;;;1.98;1.77;;;16.40;47.40;;;;;;6016988;23;20215;-81
2021/01/05 05:14:39;;;;;;;2.08;1.88;;;16.40;47.40;;;;;;6017603;23;20138;-81
2021/01/05 05:17:20;;;;;;;2.10;1.90;;;16.40;47.40;;;;;;5994259;23;20165;-81
2021/01/05 05:20:10;;;;;;;2.00;1.80;;;16.40;47.40;;;;;;5995646;23;20666;-81
2021/01/05 05:23:12;;;;;;;2.03;1.83;;;16.40;47.20;;;;;;6018687;23;20207;-81
2021/01/05 05:25:43;;;;;;;2.53;1.80;;;16.30;47.20;;;;;;6019015;23;20146;-81
2021/01/05 05:28:21;;;;;;;2.05;1.85;;;16.40;47.10;;;;;;5994783;23;20217;-81
2021/01/05 05:30:47;;;;;;;2.17;1.95;;;16.40;47.10;;;;;;5997363;23;20195;-82
2021/01/05 05:33:30;;;;;;;1.88;1.67;;;16.40;47.10;;;;;;6019885;23;20144;-82
2021/01/05 05:36:20;;;;;;;1.80;1.70;;;16.40;47.10;;;;;;5998842;23;20227;-81
2021/01/05 05:38:57;;;;;;;1.80;1.63;;;16.40;47.20;;;;;;5997473;23;20158;-82
2021/01/05 05:41:47;;;;;;;1.80;1.55;;;16.40;47.10;;;;;;6020880;23;20159;-82
2021/01/05 05:44:53;;;;;;;2.00;1.80;;;16.40;46.90;;;;;;6021582;23;20606;-82
2021/01/05 05:47:21;;;;;;;1.85;1.65;;;16.40;47.00;;;;;;6017039;23;20167;-82
2021/01/05 05:50:12;;;;;;;2.05;1.80;;;16.40;46.90;;;;;;6138576;23;20207;-82
2021/01/05 05:52:58;;;;;;;1.95;1.75;;;16.40;47.00;;;;;;6133854;23;20136;-82
2021/01/05 05:55:39;;;;;;;2.10;1.90;;;16.40;47.00;;;;;;6091072;23;20159;-82
2021/01/05 05:58:06;;;;;;;1.85;1.73;;;16.40;46.90;;;;;;6139102;23;20136;-82
2021/01/05 06:00:38;;;;;;;2.22;1.77;;;16.50;46.60;;;;;;6113526;23;20140;-81
2021/01/05 06:03:04;;;;;;;2.03;1.80;;;16.50;46.70;;;;;;6113524;23;20140;-80
2021/01/05 06:05:35;;;;;;;2.40;1.77;;;16.50;46.60;;;;;;6111372;23;20136;-83
2021/01/05 06:08:08;;;;;;;1.70;1.60;;;16.50;46.30;;;;;;6081463;23;20167;-81
2021/01/05 06:10:34;;;;;;;2.10;1.90;;;16.50;46.40;;;;;;6107408;23;20167;-81
2021/01/05 06:13:00;;;;;;;1.65;1.55;;;16.60;46.30;;;;;;6083415;23;20147;-81
2021/01/05 06:15:26;;;;;;;1.63;1.52;;;16.50;46.40;;;;;;6129343;23;20132;-81
2021/01/05 06:17:52;;;;;;;2.28;1.83;;;16.50;46.50;;;;;;6130381;23;20141;-81
2021/01/05 06:20:18;;;;;;;1.88;1.70;;;16.50;46.20;;;;;;6132270;23;20150;-82
2021/01/05 06:22:45;;;;;;;1.90;1.70;;;16.50;46.20;;;;;;6110370;23;20164;-81
2021/01/05 06:25:12;;;;;;;1.88;1.67;;;16.60;46.20;;;;;;6134894;23;20151;-82
2021/01/05 06:27:38;;;;;;;2.00;1.80;;;16.50;46.40;;;;;;6086535;23;20182;-83
2021/01/05 06:30:06;;;;;;;1.70;1.60;;;16.50;46.20;;;;;;6088082;23;20153;-79
2021/01/05 06:32:32;;;;;;;2.17;1.83;;;16.60;46.10;;;;;;6118300;23;20171;-79
2021/01/05 06:34:59;;;;;;;1.58;1.48;;;16.50;46.10;;;;;;6085250;23;20202;-80
2021/01/05 06:37:25;;;;;;;1.85;1.75;;;16.60;46.30;;;;;;6137305;23;20136;-79
2021/01/05 06:39:50;;;;;;;2.40;1.70;;;16.50;46.20;;;;;;6138530;23;20187;-80
2021/01/05 06:42:16;;;;;;;1.67;1.58;;;16.60;46.20;;;;;;6140113;23;20455;-80
2021/01/05 06:44:43;;;;;;;2.05;1.70;;;16.50;46.20;;;;;;6116261;23;20151;-80
2021/01/05 06:47:09;;;;;;;1.92;1.73;;;16.50;46.40;;;;;;6142289;23;20172;-80
2021/01/05 06:49:35;;;;;;;2.08;1.88;;;16.50;46.00;;;;;;6117752;23;20139;-80
2021/01/05 06:52:01;;;;;;;2.40;1.92;;;16.50;46.00;;;;;;6095373;23;20204;-80
2021/01/05 06:54:27;;;;;;;1.80;1.52;;;16.60;46.00;;;;;;6144717;23;20139;-80
2021/01/05 06:56:57;;;;;;;1.77;1.67;;;16.60;46.10;;;;;;6143126;23;20560;-80
2021/01/05 06:59:25;;;;;;;2.05;1.80;;;16.60;46.10;;;;;;6082645;23;20168;-81
2021/01/05 07:02:01;;;;;;;2.00;1.80;;;16.50;46.20;;;;;;6139436;23;20203;-82
2021/01/05 07:04:27;;;;;;;2.00;1.80;;;16.50;46.00;;;;;;6113093;23;20138;-81
2021/01/05 07:06:58;;;;;;;1.67;1.52;;;16.50;46.00;;;;;;6087269;23;20605;-77
2021/01/05 07:09:25;;;;;;;2.00;1.80;;;16.60;45.90;;;;;;6136409;23;20136;-79
2021/01/05 07:11:51;;;;;;;2.00;1.80;;;16.60;45.90;;;;;;6135807;23;20511;-78
2021/01/05 07:14:25;;;;;;;1.98;1.77;;;16.60;45.80;;;;;;6137680;23;20132;-82
2021/01/05 07:16:53;;;;;;;1.95;1.63;;;16.60;45.90;;;;;;6114996;23;20155;-82
2021/01/05 07:19:19;;;;;;;2.10;1.90;;;16.60;46.00;;;;;;6139463;23;20179;-82
2021/01/05 07:21:45;;;;;;;2.08;1.77;;;16.60;46.00;;;;;;6115333;23;20132;-82
2021/01/05 07:24:14;;;;;;;1.60;1.48;;;16.60;45.80;;;;;;6115082;23;20193;-81
2021/01/05 07:26:47;;;;;;;2.00;1.80;;;16.60;45.80;;;;;;6139938;23;20176;-81
2021/01/05 07:29:16;;;;;;;1.95;1.73;;;16.60;45.90;;;;;;6090650;23;20136;-82
2021/01/05 07:31:44;;;;;;;1.88;1.67;;;16.50;46.00;;;;;;6114243;23;20517;-82
2021/01/05 07:34:11;;;;;;;1.95;1.77;;;16.60;45.90;;;;;;6139492;23;20187;-82
2021/01/05 07:36:58;;;;;;;1.50;1.40;;;16.60;46.00;;;;;;6090189;23;20172;-83
2021/01/05 07:39:26;;;;;;;1.80;1.70;;;16.60;45.80;;;;;;6109904;23;20132;-82
2021/01/05 07:42:27;;;;;;;1.83;1.67;;;16.70;45.80;;;;;;6113925;23;20136;-81
2021/01/05 07:45:04;;;;;;;2.08;1.88;;;16.60;45.80;;;;;;6022708;23;20155;-81
2021/01/05 07:47:34;;;;;;;2.53;2.17;;;16.60;45.80;;;;;;6022070;23;20579;-82
2021/01/05 07:50:00;;;;;;;2.35;1.90;;;16.70;45.60;;;;;;5998725;23;20158;-83
2021/01/05 07:52:37;;;;;;;2.45;2.00;;;16.60;45.70;;;;;;5998687;23;20139;-81
2021/01/05 07:55:04;;;;;;;3.58;1.88;;;16.60;45.70;;;;;;5998674;23;20159;-82
2021/01/05 07:57:31;;;;;;;2.22;1.80;;;16.70;45.50;;;;;;5999741;23;20147;-79
2021/01/05 08:00:01;;;;;;;1.98;1.67;;;16.70;45.40;;;;;;6024493;23;20139;-82
2021/01/05 08:02:28;;;;;;;3.45;1.73;;;16.70;45.50;;;;;;6000054;23;20233;-82
2021/01/05 08:04:56;;;;;;;2.10;1.83;;;16.70;45.50;;;;;;6024399;23;20199;-81
2021/01/05 08:07:22;;;;;;;2.70;1.95;;;16.60;45.40;;;;;;6024110;23;20262;-81
2021/01/05 08:09:48;;;;;;;2.05;1.55;;;16.70;45.40;;;;;;6000364;23;20603;-81
2021/01/05 08:12:16;;;;;;;2.03;1.85;;;16.60;45.50;;;;;;6025075;23;20144;-82
2021/01/05 08:14:42;;;;;;;2.20;2.00;;;16.70;45.30;;;;;;6001159;23;20156;-82
2021/01/05 08:17:08;;;;;;;1.95;1.73;;;16.70;45.10;;;;;;6000273;23;20147;-82
2021/01/05 08:19:34;;;;;;;2.30;1.95;;;16.70;45.10;;;;;;6024102;23;20167;-81
2021/01/05 08:22:02;;;;;;;1.65;1.52;;;16.70;45.10;;;;;;6100866;23;20468;-81
2021/01/05 08:24:29;;;;;;;1.95;1.65;;;16.80;45.00;;;;;;6093523;23;20137;-82
2021/01/05 08:26:56;;;;;;;1.92;1.60;;;16.70;45.20;;;;;;6142237;23;20168;-81
2021/01/05 08:29:21;;;;;;;2.33;1.73;;;16.70;45.10;;;;;;6141809;23;20132;-82
2021/01/05 08:31:47;;;;;;;2.00;1.80;;;16.70;45.10;;;;;;6116417;23;20160;-81
2021/01/05 08:34:13;;;;;;;2.15;1.80;;;16.70;45.20;;;;;;6115867;23;20184;-82
2021/01/05 08:36:40;;;;;;;1.63;1.52;;;16.60;45.20;;;;;;6091957;23;20155;-81
2021/01/05 08:39:06;;;;;;;1.80;1.70;;;16.70;45.20;;;;;;6091975;23;20164;-81
2021/01/05 08:41:34;;;;;;;2.00;1.80;;;16.70;45.10;;;;;;6115259;23;20132;-81
2021/01/05 08:43:59;;;;;;;1.70;1.50;;;16.70;45.00;;;;;;6140288;23;20472;-81
2021/01/05 08:46:27;;;;;;;2.03;1.83;;;16.80;44.70;;;;;;6141517;23;20148;-81
2021/01/05 08:48:55;;;;;;;1.75;1.65;;;16.80;44.70;;;;;;6115847;23;20202;-81
2021/01/05 08:51:23;;;;;;;2.08;1.80;;;16.80;44.90;;;;;;6141020;23;20569;-81
2021/01/05 08:53:53;;;;;;;1.95;1.75;;;16.80;44.60;;;;;;6141073;23;20573;-81
2021/01/05 08:56:23;;;;;;;2.88;1.80;;;16.80;44.80;;;;;;6139807;23;20147;-81
2021/01/05 08:58:52;;;;;;;1.50;1.40;;;16.80;44.70;;;;;;6113047;23;20192;-83
2021/01/05 09:01:17;;;;;;;1.92;1.70;;;16.80;44.60;;;;;;6114070;23;20221;-80
2021/01/05 09:03:43;;;;;;;2.05;1.67;;;16.80;44.70;;;;;;6139775;23;20140;-81
2021/01/05 09:06:21;;;;;;;2.17;1.80;;;16.80;44.80;;;;;;6138849;23;20136;-80
2021/01/05 09:08:48;;;;;;;1.67;1.58;;;16.70;44.80;;;;;;6136558;23;20326;-80
2021/01/05 09:11:22;;;;;;;2.20;1.80;;;16.70;45.20;;;;;;6109730;23;20271;-82
2021/01/05 09:13:49;;;;;;;1.95;1.60;;;16.70;44.80;;;;;;6111434;23;20135;-81
2021/01/05 09:16:26;;;;;;;1.55;1.45;;;16.80;44.70;;;;;;6137176;23;20132;-80
2021/01/05 09:18:53;;;;;;;2.42;1.65;;;16.70;45.00;;;;;;6136867;23;20170;-81
2021/01/05 09:21:22;;;;;;;1.73;1.60;;;16.80;44.70;;;;;;6111108;23;20143;-80
2021/01/05 09:23:52;;;;;;;2.30;1.67;;;16.80;44.70;;;;;;6113653;23;20132;-81
2021/01/05 09:26:29;;;;;;;1.88;1.63;;;16.90;44.80;;;;;;6139019;23;20136;-81
2021/01/05 09:28:55;;;;;;;3.15;1.80;;;16.90;44.40;;;;;;6136408;23;20195;-80
2021/01/05 09:31:42;;;;;;;1.95;1.65;;;17.00;44.40;;;;;;6134981;23;20139;-79
2021/01/05 09:34:08;;;;;;;1.70;1.60;;;16.90;44.70;;;;;;6137144;23;20188;-79
2021/01/05 09:36:37;;;;;;;1.95;1.75;;;16.90;44.70;;;;;;6110135;23;20132;-82
2021/01/05 09:39:14;;;;;;;1.90;1.52;;;16.90;44.80;;;;;;6108573;23;20156;-81
2021/01/05 09:41:42;;;;;;;2.28;1.67;;;16.80;44.80;;;;;;6111031;23;20140;-80
2021/01/05 09:44:08;;;;;;;2.60;1.33;;;16.90;44.80;;;;;;6108359;23;20187;-79
2021/01/05 09:46:34;;;;;;;2.47;1.60;;;16.90;44.70;;;;;;6134472;23;20420;-79
2021/01/05 09:49:01;;;;;;;1.77;1.52;;;17.00;44.40;;;;;;6111051;23;20194;-79
2021/01/05 09:51:29;;;;;;;2.35;1.70;;;16.90;44.40;;;;;;6089390;23;20136;-79
2021/01/05 09:53:55;;;;;;;2.42;2.03;;;17.00;44.60;;;;;;6113984;23;20148;-79
2021/01/05 09:56:24;;;;;;;2.22;1.60;;;17.00;44.40;;;;;;6089799;23;20159;-79
2021/01/05 09:58:50;;;;;;;2.15;1.48;;;17.00;44.50;;;;;;6112078;23;20136;-81
2021/01/05 10:01:31;;;;;;;1.52;1.35;;;17.00;44.40;;;;;;6114368;23;20202;-80
2021/01/05 10:03:58;;;;;;;1.90;1.58;;;17.00;44.50;;;;;;6134812;23;20132;-81
2021/01/05 10:06:34;;;;;;;1.90;1.73;;;17.00;44.50;;;;;;6138068;23;20576;-80
2021/01/05 10:09:07;;;;;;;1.60;1.50;;;17.00;44.40;;;;;;6136066;23;20254;-80
2021/01/05 10:11:32;;;;;;;1.80;1.70;;;17.00;44.40;;;;;;6088446;23;20132;-79
2021/01/05 10:14:08;;;;;;;1.88;1.70;;;17.00;44.60;;;;;;6109972;23;20142;-79
2021/01/05 10:16:33;;;;;;;1.90;1.52;;;17.00;44.90;;;;;;6109421;23;20176;-79
2021/01/05 10:19:00;;;;;;;2.92;1.67;;;17.00;44.80;;;;;;6136415;23;20136;-80
2021/01/05 10:21:52;;;;;;;2.33;2.00;;;17.10;44.50;;;;;;6107101;23;20159;-82
2021/01/05 10:24:18;;;;;;;2.90;1.70;;;17.10;45.00;;;;;;6107247;23;20144;-81
2021/01/05 10:26:54;;;;;;;2.97;1.60;;;17.00;45.30;;;;;;6109466;23;20143;-79
2021/01/05 10:29:22;;;;;;;1.90;1.70;;;17.10;45.20;;;;;;6133780;23;20128;-79
2021/01/05 10:32:04;;;;;;;2.58;1.70;;;17.00;45.30;;;;;;6083268;23;20191;-79
2021/01/05 10:34:30;;;;;;;2.20;1.60;;;17.10;44.70;;;;;;6136440;23;20207;-81
2021/01/05 10:36:58;;;;;;;2.35;1.40;;;17.00;45.30;;;;;;6112547;23;20150;-83
2021/01/05 10:39:25;;;;;;;4.03;1.67;;;17.00;44.90;;;;;;6112515;23;20133;-80
2021/01/05 10:41:51;;;;;;;6.47;2.05;;;16.90;45.60;;;;;;6111431;23;20129;-79
2021/01/05 10:44:20;;;;;;;6.05;1.85;;;16.90;45.80;;;;;;6110716;23;20473;-78
2021/01/05 10:46:45;;;;;;;4.57;1.70;;;16.90;45.50;;;;;;6138865;23;20143;-79
2021/01/05 10:49:12;;;;;;;6.50;1.73;;;17.00;45.50;;;;;;6139371;23;20133;-83
2021/01/05 10:51:56;;;;;;;5.65;1.90;;;17.00;45.60;;;;;;6138933;23;20494;-84
2021/01/05 10:54:30;;;;;;;10.43;1.85;;;17.10;45.10;;;;;;6140340;23;20648;-82
2021/01/05 10:57:01;;;;;;;19.17;2.28;;;17.10;44.80;;;;;;6144285;23;20164;-82
2021/01/05 10:59:28;;;;;;;8.40;2.10;;;17.10;45.20;;;;;;6142973;23;20136;-82
2021/01/05 11:01:56;;;;;;;13.35;2.20;;;17.10;46.00;;;;;;6138455;23;20159;-81
2021/01/05 11:04:42;;;;;;;16.20;2.40;;;17.10;45.20;;;;;;6144911;23;20155;-80
2021/01/05 11:07:12;;;;;;;17.08;2.35;;;17.10;45.30;;;;;;6142754;23;20172;-83
2021/01/05 11:09:38;;;;;;;12.73;2.10;;;17.10;44.90;;;;;;6143469;23;20159;-82
2021/01/05 11:12:20;;;;;;;17.58;2.30;;;17.20;44.60;;;;;;6139842;23;20133;-85
2021/01/05 11:14:55;;;;;;;11.55;2.22;;;17.20;44.90;;;;;;6142895;23;20136;-84
2021/01/05 11:17:21;;;;;;;20.20;2.28;;;17.20;44.70;;;;;;6144139;23;20187;-83
2021/01/05 11:19:48;;;;;;;18.30;2.78;;;17.10;45.20;;;;;;6143673;23;20132;-79
2021/01/05 11:22:16;;;;;;;13.32;2.38;;;17.10;44.90;;;;;;6143991;23;20137;-82
2021/01/05 11:24:42;;;;;;;11.82;2.03;;;17.10;45.20;;;;;;6092125;23;20140;-82
2021/01/05 11:27:16;;;;;;;10.52;2.60;;;17.10;45.10;;;;;;6140675;23;20549;-81
2021/01/05 11:29:51;;;;;;;17.55;2.50;;;17.10;45.10;;;;;;6115497;23;20128;-82
2021/01/05 11:32:17;;;;;;;6.97;1.60;;;17.10;45.20;;;;;;6141256;23;20136;-83
2021/01/05 11:34:43;;;;;;;10.23;1.95;;;17.10;45.00;;;;;;6141981;23;20201;-82
2021/01/05 11:37:10;;;;;;;11.35;1.90;;;17.10;45.00;;;;;;6120458;23;20156;-81
2021/01/05 11:39:37;;;;;;;8.25;2.10;;;17.10;45.00;;;;;;6119601;23;20223;-81
2021/01/05 11:42:04;;;;;;;10.63;2.00;;;17.00;45.30;;;;;;6143866;23;20204;-82
2021/01/05 11:44:30;;;;;;;6.75;2.00;;;17.10;45.00;;;;;;6120098;23;20143;-78
2021/01/05 11:46:56;;;;;;;5.18;1.80;;;17.10;44.80;;;;;;6090967;23;20188;-79
2021/01/05 11:49:23;;;;;;;10.63;1.67;;;17.10;44.70;;;;;;6143672;23;20132;-81
2021/01/05 11:51:51;;;;;;;7.60;1.77;;;17.10;44.80;;;;;;6136482;23;20132;-82
2021/01/05 11:54:18;;;;;;;4.47;1.73;;;17.20;44.80;;;;;;6136006;23;20132;-84
2021/01/05 11:56:44;;;;;;;7.93;2.13;;;17.10;45.00;;;;;;6142743;23;20655;-81
2021/01/05 11:59:11;;;;;;;7.80;2.00;;;17.10;45.00;;;;;;6115976;23;20132;-84
2021/01/05 12:01:37;;;;;;;6.25;1.85;;;17.10;45.00;;;;;;6090831;23;20144;-83
2021/01/05 12:04:07;;;;;;;7.68;1.75;;;17.10;44.70;;;;;;6114676;23;20140;-80
2021/01/05 12:06:34;;;;;;;5.32;2.30;;;17.10;44.60;;;;;;6116762;23;20144;-83
2021/01/05 12:08:59;;;;;;;10.50;1.88;;;17.10;44.60;;;;;;6142181;23;20671;-82
2021/01/05 12:11:35;;;;;;;7.35;2.10;;;17.00;44.70;;;;;;6113966;23;20132;-81
2021/01/05 12:14:01;;;;;;;7.20;1.98;;;17.00;44.80;;;;;;6144140;23;20151;-80
2021/01/05 12:16:32;;;;;;;3.53;1.58;;;17.00;44.70;;;;;;6117422;23;20222;-82
2021/01/05 12:19:00;;;;;;;6.30;1.90;;;17.00;44.80;;;;;;6122085;23;20598;-80
2021/01/05 12:21:31;;;;;;;4.97;1.80;;;17.10;44.50;;;;;;6148214;23;20136;-82
2021/01/05 12:24:06;;;;;;;4.97;1.80;;;17.10;44.30;;;;;;6143996;23;20136;-82
2021/01/05 12:26:37;;;;;;;10.02;2.03;;;17.10;44.40;;;;;;6115200;23;20219;-81
2021/01/05 12:29:09;;;;;;;5.32;2.20;;;17.20;44.20;;;;;;6114592;23;20199;-82
2021/01/05 12:31:43;;;;;;;3.55;1.55;;;17.10;44.40;;;;;;6114678;23;20132;-80
2021/01/05 12:34:09;;;;;;;4.32;1.90;;;17.10;44.30;;;;;;6139185;23;20222;-82
2021/01/05 12:36:41;;;;;;;3.28;1.80;;;17.10;44.50;;;;;;6091905;23;20158;-82
2021/01/05 12:39:18;;;;;;;4.15;1.95;;;17.00;44.60;;;;;;6115280;23;20182;-81
2021/01/05 12:41:52;;;;;;;6.28;2.05;;;17.10;44.00;;;;;;6142268;23;20132;-82
2021/01/05 12:44:22;;;;;;;4.97;1.70;;;17.20;44.20;;;;;;6115302;23;20215;-83
2021/01/05 12:46:52;;;;;;;6.20;2.13;;;17.20;44.10;;;;;;6114742;23;20136;-81
2021/01/05 12:49:26;;;;;;;6.82;1.70;;;17.10;44.50;;;;;;6114261;23;20188;-82
2021/01/05 12:51:53;;;;;;;2.70;1.65;;;17.10;44.50;;;;;;6115312;23;20136;-82
2021/01/05 12:54:39;;;;;;;4.72;1.70;;;17.10;44.20;;;;;;6114224;23;20211;-82
2021/01/05 12:57:07;;;;;;;2.08;1.70;;;17.10;44.10;;;;;;6136650;23;20147;-81
2021/01/05 12:59:34;;;;;;;3.60;1.77;;;17.20;44.20;;;;;;6089945;23;20286;-81
2021/01/05 13:02:01;;;;;;;4.03;2.05;;;17.20;44.10;;;;;;6114765;23;20136;-82
2021/01/05 13:04:28;;;;;;;5.75;1.60;;;17.10;44.30;;;;;;6113487;23;20143;-84
2021/01/05 13:07:02;;;;;;;3.40;1.77;;;17.10;44.30;;;;;;6114053;23;20556;-82